Terminal Aerodrome Forecast
Issued by NWS

Current Version | Previous Version | Text Only | Print | Product List | Glossary On
Versions: 1 2 3 4 5 6 7 8 9 10 11 12
000
FTAK31 PAJN 042300
TAFAPG
TAF
PAPG 042320Z 0500/0524 21004KT P6SM -RA SCT015 BKN025 OVC035
     FM050600 VRB04KT 4SM -RA BR OVC015
     FM051800 VRB02KT 6SM -RA BR BKN010 OVC015
      AMD LTD TO CLD VIS AND WIND 0506/0515=

USA.gov is the U.S. government's official web portal to all federal, state and local government web resources and services.